Time;durP1;ratioP1;P1;durP2;ratioP2;P2;SDS_P1;SDS_P2;PMS_P1;PMS_P2;Temp;Humidity;BMP_temperature;BMP_pressure;BME280_temperature;BME280_humidity;BME280_pressure;Samples;Min_cycle;Max_cycle;Signal;HPM_P1;HPM_P2
2021/11/12 00:13:27;;;;;;;60.50;29.23;;;;;;;3.20;86.80;101175.81;5054611;28;20036;-57
2021/11/12 00:15:55;;;;;;;46.13;27.52;;;;;;;3.17;86.66;101170.94;5055552;28;20029;-58
2021/11/12 00:18:25;;;;;;;59.22;27.90;;;;;;;3.19;87.25;101168.66;5055051;28;20029;-55
2021/11/12 00:20:52;;;;;;;51.63;27.58;;;;;;;3.17;87.14;101167.34;5054934;28;20097;-56
2021/11/12 00:23:18;;;;;;;49.50;28.33;;;;;;;3.15;87.38;101167.69;5054669;28;20043;-56
2021/11/12 00:25:44;;;;;;;43.10;28.13;;;;;;;3.17;87.30;101162.59;5048695;28;20036;-56
2021/11/12 00:28:11;;;;;;;52.50;27.52;;;;;;;3.18;87.10;101161.47;5051869;28;20021;-56
2021/11/12 00:38:36;;;;;;;41.00;27.20;;;;;;;3.15;86.48;101156.56;5055109;28;20358;-51
2021/11/12 00:42:07;;;;;;;54.25;28.08;;;;;;;3.10;86.22;101165.91;5055146;28;20159;-57
2021/11/12 00:43:57;;;;;;;50.78;26.30;;;;;;;3.04;86.94;101166.44;5058394;28;20029;-54
2021/11/12 00:51:19;;;;;;;41.97;26.65;;;;;;;2.92;87.38;101158.78;5055940;28;20021;-55
2021/11/12 00:56:28;;;;;;;40.97;26.33;;;;;;;2.87;87.42;101152.63;5057972;28;20591;-55
2021/11/12 00:58:55;;;;;;;51.60;27.15;;;;;;;2.84;87.28;101156.06;5058135;28;20116;-58
2021/11/12 01:01:22;;;;;;;53.17;28.38;;;;;;;2.77;87.97;101162.13;5058560;28;20025;-57
2021/11/12 01:03:49;;;;;;;46.15;28.45;;;;;;;2.72;88.17;101153.94;5058021;28;20404;-58
2021/11/12 01:06:15;;;;;;;51.47;28.75;;;;;;;2.71;88.50;101155.91;5058468;28;20031;-57
2021/11/12 01:08:41;;;;;;;46.65;28.20;;;;;;;2.81;88.77;101159.50;5057972;28;20422;-57
2021/11/12 01:11:06;;;;;;;51.13;30.02;;;;;;;2.82;88.48;101163.91;5058455;28;20017;-55
2021/11/12 01:13:34;;;;;;;45.92;28.00;;;;;;;2.92;88.58;101161.56;5058032;28;20058;-57
2021/11/12 01:15:59;;;;;;;47.55;29.75;;;;;;;2.98;88.15;101171.34;5057430;28;20055;-57
2021/11/12 01:18:25;;;;;;;44.63;29.10;;;;;;;3.03;87.52;101159.25;5051511;28;20029;-53
2021/11/12 01:20:51;;;;;;;56.40;28.05;;;;;;;2.99;87.24;101153.53;5048966;28;20025;-58
2021/11/12 01:23:18;;;;;;;42.75;27.88;;;;;;;2.95;88.21;101147.00;5057035;28;20032;-54
2021/11/12 01:25:44;;;;;;;49.05;27.88;;;;;;;2.96;88.47;101147.84;5046408;28;20024;-56
2021/11/12 01:28:09;;;;;;;56.40;27.88;;;;;;;2.95;88.30;101147.00;5053785;28;20036;-57
2021/11/12 01:30:35;;;;;;;55.90;28.63;;;;;;;2.96;88.65;101142.28;5055818;28;20136;-58
2021/11/12 01:33:00;;;;;;;65.40;27.10;;;;;;;2.98;88.74;101139.97;5052406;28;20041;-57
2021/11/12 01:35:26;;;;;;;44.35;25.75;;;;;;;3.06;88.93;101144.69;5057718;28;20028;-51
2021/11/12 01:37:53;;;;;;;42.72;27.98;;;;;;;3.09;87.71;101142.06;5047188;28;20040;-57
2021/11/12 01:40:26;;;;;;;44.63;27.02;;;;;;;3.09;87.42;101138.47;5039926;28;20294;-52
2021/11/12 01:42:59;;;;;;;39.35;26.58;;;;;;;3.11;87.71;101138.94;5052377;28;20017;-57
2021/11/12 01:45:36;;;;;;;38.92;25.50;;;;;;;3.12;87.33;101142.53;5049519;28;20052;-58
2021/11/12 01:48:26;;;;;;;45.72;27.08;;;;;;;3.07;87.44;101144.38;5057043;28;20103;-54
2021/11/12 01:53:31;;;;;;;43.53;25.55;;;;;;;2.96;88.10;101134.75;5057455;28;20057;-56
2021/11/12 01:56:21;;;;;;;39.92;26.30;;;;;;;2.96;87.42;101131.97;5057089;28;20127;-51
2021/11/12 02:01:18;;;;;;;36.05;24.42;;;;;;;2.97;87.94;101132.78;5057454;28;20375;-56
2021/11/12 02:03:45;;;;;;;39.25;24.02;;;;;;;3.02;87.89;101135.41;5056900;28;20025;-54
2021/11/12 02:06:12;;;;;;;33.70;24.05;;;;;;;3.03;87.15;101131.47;5057340;28;20050;-57
2021/11/12 02:08:38;;;;;;;34.17;23.80;;;;;;;3.03;86.76;101126.75;5056764;28;20293;-57
2021/11/12 02:11:03;;;;;;;34.95;24.20;;;;;;;3.01;86.22;101122.63;5056842;28;20050;-53
2021/11/12 02:13:31;;;;;;;34.65;23.08;;;;;;;2.99;86.46;101119.38;5056939;28;20017;-53
2021/11/12 02:15:57;;;;;;;40.05;24.98;;;;;;;2.98;86.32;101120.53;5057030;28;20029;-54
2021/11/12 02:18:28;;;;;;;35.08;24.42;;;;;;;2.94;85.82;101122.34;5056956;28;20023;-49
2021/11/12 02:21:04;;;;;;;37.70;24.42;;;;;;;2.88;86.07;101118.16;5056963;28;20029;-56
2021/11/12 02:23:36;;;;;;;46.25;23.38;;;;;;;2.82;86.44;101122.25;5056786;28;20029;-56
2021/11/12 02:26:04;;;;;;;34.20;23.35;;;;;;;2.83;87.05;101121.09;5042994;28;20028;-55
2021/11/12 02:28:30;;;;;;;41.53;26.02;;;;;;;2.86;86.55;101121.25;5056601;28;20056;-53
2021/11/12 02:30:55;;;;;;;49.20;24.65;;;;;;;2.76;86.01;101124.41;5056988;28;20059;-54
2021/11/12 02:33:24;;;;;;;44.75;24.42;;;;;;;2.74;86.75;101124.75;5056764;28;20033;-54
2021/11/12 02:36:09;;;;;;;34.30;23.23;;;;;;;2.76;86.45;101125.22;5056343;28;20040;-54
2021/11/12 02:38:44;;;;;;;39.83;24.55;;;;;;;2.77;86.46;101124.06;5056265;28;20017;-55
2021/11/12 02:41:10;;;;;;;46.08;23.52;;;;;;;2.74;85.71;101121.97;5056503;28;20075;-55
2021/11/12 02:43:39;;;;;;;42.53;23.17;;;;;;;2.68;85.90;101123.25;5056559;28;20290;-55
2021/11/12 02:46:07;;;;;;;38.65;24.77;;;;;;;2.65;85.95;101121.16;5056582;28;20368;-56
2021/11/12 02:48:35;;;;;;;37.35;24.88;;;;;;;2.60;85.96;101118.56;5056197;28;20021;-49
2021/11/12 02:51:00;;;;;;;34.58;23.63;;;;;;;2.58;85.69;101126.41;5056136;28;20036;-57
2021/11/12 02:53:26;;;;;;;35.42;24.48;;;;;;;2.63;86.01;101111.53;5055998;28;20111;-55
2021/11/12 02:55:51;;;;;;;37.83;24.42;;;;;;;2.56;85.58;101117.59;5056276;28;20036;-56
2021/11/12 02:58:19;;;;;;;30.73;22.60;;;;;;;2.59;86.15;101118.91;5055556;28;20119;-55
2021/11/12 03:00:45;;;;;;;42.88;22.08;;;;;;;2.59;85.67;101116.94;5056100;28;20025;-53
2021/11/12 03:03:11;;;;;;;30.30;20.75;;;;;;;2.60;85.34;101118.56;5056382;28;20032;-57
2021/11/12 03:05:36;;;;;;;31.25;21.70;;;;;;;2.61;84.96;101122.97;5056175;28;20309;-57
2021/11/12 03:08:02;;;;;;;55.75;29.92;;;;;;;2.58;84.82;101126.41;5055686;28;20064;-54
2021/11/12 03:10:28;;;;;;;41.17;24.67;;;;;;;2.47;85.13;101117.63;5055816;28;20023;-56
2021/11/12 03:12:54;;;;;;;35.53;24.50;;;;;;;2.44;85.56;101123.81;5056026;28;20365;-57
2021/11/12 03:15:20;;;;;;;37.58;23.88;;;;;;;2.46;85.29;101120.72;5055004;28;20109;-57
2021/11/12 03:17:51;;;;;;;34.92;24.02;;;;;;;2.44;84.63;101117.47;5055770;28;20104;-57
2021/11/12 03:20:18;;;;;;;36.03;22.15;;;;;;;2.37;84.92;101114.38;5055760;28;20052;-56
2021/11/12 03:22:55;;;;;;;40.78;21.42;;;;;;;2.32;84.81;101112.59;5053373;28;20025;-55
2021/11/12 03:25:31;;;;;;;34.53;21.77;;;;;;;2.26;85.45;101107.56;5055918;28;20047;-57
2021/11/12 04:03:29;;;;;;;32.58;20.77;;;;;;;1.88;86.48;101111.00;5043867;28;20040;-54
2021/11/12 05:56:41;;;;;;;46.22;29.52;;;;;;;1.13;86.12;101098.41;5027728;28;20076;-53
2021/11/12 05:59:10;;;;;;;44.05;27.60;;;;;;;1.13;86.50;101110.28;5030564;28;20050;-50
2021/11/12 06:01:38;;;;;;;61.35;28.00;;;;;;;1.12;86.53;101108.66;5021470;28;20340;-53
2021/11/12 06:04:04;;;;;;;57.35;28.55;;;;;;;1.13;87.11;101112.25;5019613;28;20068;-55
2021/11/12 06:06:30;;;;;;;56.70;29.23;;;;;;;1.14;86.80;101109.16;5012064;28;20133;-57
2021/11/12 06:08:56;;;;;;;60.08;30.45;;;;;;;1.11;86.84;101118.09;5040156;28;20364;-54
2021/11/12 06:11:23;;;;;;;67.45;32.88;;;;;;;1.09;87.25;101103.75;5038659;28;20029;-54
2021/11/12 06:13:48;;;;;;;64.00;30.45;;;;;;;1.09;87.56;101105.69;5039251;28;20348;-48
2021/11/12 06:16:14;;;;;;;65.10;32.53;;;;;;;1.08;87.63;101104.88;5038745;28;20029;-53
2021/11/12 06:18:39;;;;;;;128.15;55.05;;;;;;;1.11;87.57;101109.00;5036951;28;20033;-53
2021/11/12 06:21:05;;;;;;;98.25;44.10;;;;;;;1.10;87.69;101110.13;5038157;28;20029;-53
2021/11/12 06:23:30;;;;;;;89.47;40.35;;;;;;;1.10;87.74;101107.34;5036906;28;20025;-54
2021/11/12 06:25:55;;;;;;;74.45;38.15;;;;;;;1.08;87.76;101110.41;5039097;28;20068;-53
2021/11/12 06:28:21;;;;;;;76.15;39.05;;;;;;;1.08;87.88;101112.38;5038023;28;20033;-53
2021/11/12 06:30:49;;;;;;;75.57;37.33;;;;;;;1.09;88.05;101114.81;5048491;28;20029;-51
2021/11/12 06:33:14;;;;;;;93.68;41.33;;;;;;;1.08;88.01;101113.19;5056373;28;20399;-55
2021/11/12 06:35:40;;;;;;;83.47;41.95;;;;;;;1.11;88.45;101118.09;5056613;28;20021;-53
2021/11/12 06:38:05;;;;;;;86.13;41.55;;;;;;;1.16;88.78;101108.84;5056417;28;20111;-53
2021/11/12 06:40:31;;;;;;;83.03;42.35;;;;;;;1.21;88.75;101122.53;5055370;28;20114;-53
2021/11/12 06:43:04;;;;;;;85.38;44.38;;;;;;;1.30;89.19;101123.34;5056578;28;20328;-55
2021/11/12 06:51:01;;;;;;;43.95;28.85;;;;;;;1.75;88.14;101114.78;5056180;28;20051;-50
2021/11/12 06:53:26;;;;;;;41.17;29.80;;;;;;;1.84;88.46;101112.81;5056164;28;20032;-52
2021/11/12 06:55:56;;;;;;;64.95;40.25;;;;;;;1.92;88.29;101119.50;5051439;28;20021;-54
2021/11/12 06:58:21;;;;;;;64.03;38.45;;;;;;;2.02;87.90;101116.41;5052685;28;20049;-51
2021/11/12 07:00:47;;;;;;;102.78;47.53;;;;;;;2.09;87.76;101117.53;5054357;28;20435;-55
2021/11/12 07:03:12;;;;;;;146.65;56.35;;;;;;;2.22;87.70;101118.50;5056420;28;20108;-52
2021/11/12 07:05:38;;;;;;;97.20;48.35;;;;;;;2.36;87.97;101116.34;5055702;28;20021;-54
2021/11/12 07:08:03;;;;;;;82.72;51.42;;;;;;;2.54;88.12;101122.69;5056073;28;20056;-53
2021/11/12 07:10:29;;;;;;;109.57;64.28;;;;;;;2.73;88.04;101111.97;5055881;28;20060;-52
2021/11/12 07:12:54;;;;;;;81.78;51.60;;;;;;;2.89;88.00;101111.44;5055768;28;20049;-54
2021/11/12 07:15:19;;;;;;;75.13;44.25;;;;;;;3.04;87.60;101111.72;5055716;28;20115;-51
2021/11/12 07:17:46;;;;;;;78.32;48.53;;;;;;;3.25;87.85;101110.91;5055551;28;20016;-55
2021/11/12 07:20:12;;;;;;;81.80;47.35;;;;;;;3.41;87.14;101110.00;5055851;28;20108;-53
2021/11/12 07:22:39;;;;;;;65.45;41.92;;;;;;;3.54;86.05;101107.28;5055428;28;20013;-53
2021/11/12 07:25:06;;;;;;;54.00;36.17;;;;;;;3.60;85.17;101112.34;5055772;28;20044;-52
2021/11/12 07:27:33;;;;;;;47.92;31.85;;;;;;;3.76;85.79;101122.84;5055722;28;20028;-51
2021/11/12 07:29:58;;;;;;;49.92;29.80;;;;;;;3.86;84.59;101111.34;5055185;28;20454;-54
2021/11/12 07:32:23;;;;;;;42.53;29.13;;;;;;;4.01;84.87;101119.84;5055805;28;20029;-52
2021/11/12 07:34:51;;;;;;;43.53;29.08;;;;;;;4.17;85.40;101110.88;5055692;28;20029;-53
2021/11/12 07:37:17;;;;;;;40.22;28.50;;;;;;;4.37;84.92;101109.19;5055786;28;20025;-50
2021/11/12 07:47:27;;;;;;;44.00;30.75;;;;;;;5.22;84.45;101121.28;5031256;28;20130;-55
2021/11/12 07:49:55;;;;;;;50.65;28.75;;;;;;;5.41;83.87;101115.09;5055099;28;20052;-50
2021/11/12 07:52:25;;;;;;;44.30;29.65;;;;;;;5.57;82.80;101120.78;5055754;28;20060;-50
2021/11/12 07:54:51;;;;;;;44.67;30.88;;;;;;;5.71;81.84;101114.81;5051866;28;20040;-52
2021/11/12 07:57:17;;;;;;;44.05;30.35;;;;;;;5.77;81.02;101116.22;5053874;28;20033;-53
2021/11/12 07:59:42;;;;;;;49.42;31.15;;;;;;;5.81;79.93;101115.16;5050664;28;20052;-53
2021/11/12 08:02:08;;;;;;;44.53;30.02;;;;;;;5.81;79.85;101115.16;5055150;28;20016;-54
2021/11/12 08:04:35;;;;;;;46.95;30.90;;;;;;;5.84;80.15;101113.63;5055085;28;20037;-55
2021/11/12 08:07:01;;;;;;;50.60;33.05;;;;;;;5.96;81.68;101115.59;5055115;28;20731;-52
2021/11/12 08:09:34;;;;;;;51.20;34.15;;;;;;;6.07;81.17;101111.97;5055511;28;20037;-55
2021/11/12 08:12:08;;;;;;;52.63;36.83;;;;;;;6.19;81.51;101109.09;5055185;28;20049;-49
2021/11/12 08:14:39;;;;;;;54.60;38.03;;;;;;;6.32;81.41;101109.06;5029495;28;20404;-54
2021/11/12 08:17:34;;;;;;;61.45;41.22;;;;;;;6.40;80.90;101108.09;5055571;28;20095;-55
2021/11/12 08:19:57;;;;;;;53.08;38.40;;;;;;;6.48;80.66;101112.69;5054791;28;20032;-55
2021/11/12 08:22:30;;;;;;;;;;;;;;;6.55;80.11;101110.09;5055740;28;20371;-48
2021/11/12 08:27:53;;;;;;;53.83;36.58;;;;;;;6.70;80.33;101114.06;5055061;28;20029;-52
2021/11/12 08:38:15;;;;;;;66.93;42.00;;;;;;;7.19;78.67;101110.94;5054908;28;20328;-53
2021/11/12 08:43:23;;;;;;;63.67;37.42;;;;;;;7.48;80.02;101118.81;5055210;28;20033;-50
2021/11/12 08:48:27;;;;;;;51.38;33.92;;;;;;;8.03;78.91;101114.84;5054943;28;20024;-53
2021/11/12 08:50:52;;;;;;;51.45;33.15;;;;;;;8.31;78.90;101117.44;5054724;28;20032;-54
2021/11/12 08:53:19;;;;;;;45.10;31.85;;;;;;;8.48;76.90;101113.38;5055122;28;20021;-55
2021/11/12 08:55:45;;;;;;;43.22;28.95;;;;;;;8.56;76.43;101114.34;5031507;28;20032;-54
2021/11/12 08:58:12;;;;;;;45.70;29.48;;;;;;;8.54;75.77;101114.72;5052837;28;20108;-55
2021/11/12 09:00:39;;;;;;;40.85;29.75;;;;;;;8.73;77.88;101119.44;5052547;28;20060;-51
2021/11/12 09:03:05;;;;;;;42.05;29.75;;;;;;;8.85;77.48;101113.66;5054795;28;20098;-53
2021/11/12 09:05:31;;;;;;;41.38;28.90;;;;;;;9.04;76.78;101118.41;5054635;28;20427;-53
2021/11/12 09:07:57;;;;;;;44.55;28.20;;;;;;;9.06;74.87;101110.44;5054462;28;20020;-53
2021/11/12 09:10:25;;;;;;;37.92;27.77;;;;;;;9.22;75.19;101116.69;5054571;28;20032;-51
2021/11/12 09:13:28;;;;;;;41.05;29.42;;;;;;;9.36;74.66;101116.13;5056281;28;20100;-54
2021/11/12 09:15:56;;;;;;;39.08;30.15;;;;;;;9.56;74.78;101109.19;5055889;28;20332;-57
2021/11/12 09:18:24;;;;;;;40.85;28.38;;;;;;;9.66;73.54;101101.31;5058131;28;20436;-53
2021/11/12 09:20:51;;;;;;;42.50;30.08;;;;;;;9.67;73.35;101109.38;5057917;28;20086;-56
2021/11/12 09:23:16;;;;;;;43.47;29.67;;;;;;;9.73;74.05;101113.47;5058144;28;20032;-56
2021/11/12 09:25:42;;;;;;;45.53;32.00;;;;;;;9.87;72.78;101104.44;5057735;28;20025;-56
2021/11/12 09:28:08;;;;;;;44.53;30.25;;;;;;;9.89;72.97;101105.69;5057999;28;20021;-53
2021/11/12 09:30:35;;;;;;;40.10;28.52;;;;;;;9.89;72.76;101111.28;5058168;28;20020;-56
2021/11/12 09:33:06;;;;;;;38.20;28.02;;;;;;;9.79;71.42;101097.09;5057562;28;20035;-53
2021/11/12 09:35:31;;;;;;;42.47;28.08;;;;;;;9.80;72.87;101101.50;5057939;28;20037;-50
2021/11/12 09:37:57;;;;;;;44.08;29.70;;;;;;;9.88;73.61;101097.63;5057690;28;20048;-56
2021/11/12 09:40:23;;;;;;;45.65;29.90;;;;;;;9.91;72.19;101097.69;5057291;28;20021;-57
2021/11/12 09:42:49;;;;;;;41.58;29.95;;;;;;;9.90;72.77;101096.06;5057724;28;20032;-51
2021/11/12 09:45:16;;;;;;;41.03;28.65;;;;;;;10.05;73.08;101091.41;5057797;28;20024;-56
2021/11/12 09:47:42;;;;;;;40.45;30.10;;;;;;;10.15;72.89;101096.38;5057754;28;20059;-56
2021/11/12 09:50:12;;;;;;;43.65;30.63;;;;;;;10.26;72.42;101093.72;5057293;28;20047;-54
2021/11/12 09:52:38;;;;;;;44.35;31.00;;;;;;;10.36;71.87;101083.78;5057509;28;20320;-54
2021/11/12 09:55:05;;;;;;;39.58;28.42;;;;;;;10.44;71.36;101085.50;5052325;28;20036;-53
2021/11/12 09:57:31;;;;;;;43.10;28.35;;;;;;;10.45;71.30;101098.34;5057810;28;20028;-56
2021/11/12 10:00:00;;;;;;;42.72;30.42;;;;;;;10.45;71.12;101081.50;5053261;28;20437;-56
2021/11/12 10:02:28;;;;;;;42.38;30.08;;;;;;;10.43;71.43;101073.44;5057348;28;20054;-55
2021/11/12 10:04:54;;;;;;;45.22;31.88;;;;;;;10.41;70.99;101075.84;5057479;28;20028;-55
2021/11/12 10:07:21;;;;;;;44.72;31.98;;;;;;;10.39;70.81;101072.56;5057114;28;20020;-56
2021/11/12 10:10:01;;;;;;;45.10;32.20;;;;;;;10.40;70.94;101068.56;5056804;28;20432;-53
2021/11/12 10:12:44;;;;;;;45.53;31.42;;;;;;;10.36;71.06;101078.97;5057401;28;20028;-52
2021/11/12 10:15:16;;;;;;;47.60;33.30;;;;;;;10.41;72.20;101063.78;5057042;28;20104;-56
2021/11/12 10:17:47;;;;;;;43.70;32.30;;;;;;;10.50;71.99;101064.28;5056838;28;20404;-55
2021/11/12 10:20:18;;;;;;;50.47;34.50;;;;;;;10.58;71.42;101054.72;5057077;28;20440;-55
2021/11/12 10:22:47;;;;;;;45.65;33.05;;;;;;;10.65;71.79;101051.16;5056320;28;20493;-56
2021/11/12 10:25:14;;;;;;;48.47;34.42;;;;;;;10.60;71.07;101035.44;5056944;28;20419;-56
2021/11/12 10:27:46;;;;;;;51.70;36.75;;;;;;;10.60;72.22;101031.81;5056733;28;20047;-55
2021/11/12 10:30:17;;;;;;;47.90;32.78;;;;;;;10.62;72.26;101035.88;5055743;28;20029;-55
2021/11/12 10:32:44;;;;;;;45.33;33.00;;;;;;;10.67;72.03;101032.69;5056738;28;20025;-55
2021/11/12 10:35:23;;;;;;;46.38;33.53;;;;;;;10.76;70.92;101026.75;5056497;28;20357;-54
2021/11/12 10:37:49;;;;;;;51.08;33.50;;;;;;;10.84;71.57;101023.63;5056412;28;20025;-53
2021/11/12 10:40:27;;;;;;;44.58;30.83;;;;;;;10.98;70.88;101022.13;5056387;28;20037;-55
2021/11/12 10:42:55;;;;;;;45.75;34.42;;;;;;;11.08;71.12;101015.75;5056523;28;20025;-56
2021/11/12 10:45:27;;;;;;;47.03;35.00;;;;;;;11.20;70.42;101009.00;5056658;28;20036;-52
2021/11/12 10:47:58;;;;;;;50.53;33.35;;;;;;;11.25;70.58;101003.81;5056162;28;20025;-59
2021/11/12 10:50:29;;;;;;;53.38;34.85;;;;;;;11.23;70.14;101000.59;5056274;28;20128;-56
2021/11/12 10:53:09;;;;;;;48.92;34.75;;;;;;;11.22;70.32;100996.16;5056303;28;20021;-55
2021/11/12 10:55:35;;;;;;;46.72;34.60;;;;;;;11.35;71.56;100993.81;5051402;28;20029;-54
2021/11/12 10:58:06;;;;;;;48.67;35.13;;;;;;;11.52;70.24;100987.50;5055907;28;20040;-57
2021/11/12 11:00:33;;;;;;;48.78;34.72;;;;;;;11.74;71.00;100991.19;5053301;28;20041;-57
2021/11/12 11:03:07;;;;;;;51.13;35.70;;;;;;;11.93;69.51;100990.88;5056103;28;20017;-55
2021/11/12 11:05:56;;;;;;;50.67;35.13;;;;;;;12.05;69.12;100981.25;5055986;28;20033;-53
2021/11/12 11:08:31;;;;;;;48.47;35.08;;;;;;;12.12;68.67;100983.31;5056315;28;20096;-57
2021/11/12 11:11:02;;;;;;;51.28;36.03;;;;;;;12.37;68.71;100976.50;5055649;28;20054;-53
2021/11/12 11:13:37;;;;;;;51.60;36.35;;;;;;;12.56;68.21;100978.13;5056017;28;20541;-55
2021/11/12 11:16:05;;;;;;;49.97;35.80;;;;;;;12.68;66.92;100985.38;5056159;28;20075;-53
2021/11/12 11:18:40;;;;;;;52.33;34.38;;;;;;;12.71;67.03;100983.78;5055824;28;20024;-55
2021/11/12 11:24:09;;;;;;;61.37;36.57;;;;;;;12.94;64.96;100975.72;5056090;28;20037;-57
2021/11/12 11:26:37;;;;;;;49.10;33.88;;;;;;;13.00;65.89;100972.06;5046803;28;20280;-57
2021/11/12 11:29:04;;;;;;;46.67;33.17;;;;;;;12.94;64.75;100972.88;5055651;28;20052;-55
2021/11/12 11:31:31;;;;;;;46.30;31.45;;;;;;;12.93;65.16;100974.91;5055636;28;20412;-55
2021/11/12 11:33:57;;;;;;;47.80;34.42;;;;;;;12.90;65.67;100963.63;5055522;28;20053;-56
2021/11/12 11:36:26;;;;;;;55.97;34.88;;;;;;;12.96;65.50;100970.47;5054639;28;20053;-56
2021/11/12 11:38:53;;;;;;;48.55;33.28;;;;;;;13.01;65.64;100967.22;5055797;28;20312;-56
2021/11/12 11:41:22;;;;;;;49.25;35.03;;;;;;;12.99;64.86;100969.66;5055966;28;20033;-57
2021/11/12 11:43:48;;;;;;;45.83;32.15;;;;;;;12.92;65.67;100964.03;5055185;28;20017;-56
2021/11/12 11:46:19;;;;;;;48.58;35.20;;;;;;;12.85;65.39;100958.38;5055480;28;20029;-54
2021/11/12 11:48:45;;;;;;;44.20;33.10;;;;;;;12.77;66.04;100960.41;5055112;28;20052;-52
2021/11/12 11:51:19;;;;;;;43.38;31.63;;;;;;;12.72;64.85;100962.81;5055253;28;20057;-55
2021/11/12 11:53:48;;;;;;;47.33;33.78;;;;;;;12.74;66.61;100954.75;5055458;28;20037;-56
2021/11/12 11:56:47;;;;;;;45.15;33.38;;;;;;;12.85;66.06;100950.69;5050440;28;20364;-60
2021/11/12 11:59:25;;;;;;;49.35;32.08;;;;;;;12.87;66.55;100947.47;5028372;28;20059;-56
2021/11/12 12:01:52;;;;;;;43.30;30.55;;;;;;;12.88;65.58;100949.13;5055352;28;20344;-54
2021/11/12 12:04:17;;;;;;;49.25;32.28;;;;;;;12.92;65.45;100942.25;5055186;28;20411;-54
2021/11/12 12:07:03;;;;;;;44.20;30.92;;;;;;;12.91;65.85;100943.47;5055144;28;20096;-54
2021/11/12 12:09:48;;;;;;;47.17;33.10;;;;;;;12.92;66.59;100947.91;5055056;28;20128;-57
2021/11/12 12:12:33;;;;;;;44.97;31.92;;;;;;;13.05;65.50;100939.78;5055096;28;20108;-55
2021/11/12 12:15:04;;;;;;;49.38;34.40;;;;;;;13.17;65.26;100944.22;5055491;28;20094;-56
2021/11/12 12:17:32;;;;;;;52.92;35.15;;;;;;;13.34;64.22;100931.28;5055142;28;20047;-56
2021/11/12 12:20:58;;;;;;;49.08;34.58;;;;;;;13.36;62.92;100928.84;5054926;28;20025;-56
2021/11/12 13:25:29;;;;;;;30.27;21.40;;;;;;;13.10;58.19;100893.41;5058143;28;20320;-55
2021/11/12 13:28:22;;;;;;;30.05;21.55;;;;;;;12.98;57.73;100892.66;5057665;28;20039;-56
2021/11/12 13:30:52;;;;;;;32.58;22.40;;;;;;;12.83;58.29;100893.06;5058010;28;20028;-56
2021/11/12 13:33:32;;;;;;;30.20;20.63;;;;;;;12.74;58.80;100898.34;5057874;28;20124;-57
2021/11/12 13:36:20;;;;;;;28.48;20.50;;;;;;;12.66;57.67;100891.91;5057796;28;20413;-55
2021/11/12 13:38:53;;;;;;;25.77;18.98;;;;;;;12.58;56.67;100890.28;5050523;28;20029;-56
2021/11/12 13:41:21;;;;;;;26.75;19.00;;;;;;;12.54;57.74;100889.50;5058083;28;20104;-57
2021/11/12 13:43:49;;;;;;;28.85;20.55;;;;;;;12.49;58.08;100885.06;5057616;28;20047;-56
2021/11/12 13:46:15;;;;;;;32.85;22.25;;;;;;;12.44;58.37;100884.69;5057361;28;20317;-54
2021/11/12 13:48:46;;;;;;;28.65;19.20;;;;;;;12.40;57.60;100884.69;5057386;28;20028;-54
2021/11/12 13:51:12;;;;;;;29.92;20.45;;;;;;;12.39;58.20;100891.53;5057689;28;20054;-56
2021/11/12 13:53:37;;;;;;;36.72;23.67;;;;;;;12.36;58.48;100886.69;5057511;28;20068;-52
2021/11/12 13:56:08;;;;;;;61.65;37.97;;;;;;;12.35;57.34;100890.72;5052522;28;20467;-57
2021/11/12 13:58:34;;;;;;;34.38;22.25;;;;;;;12.33;57.81;100887.50;5053146;28;20107;-54
2021/11/12 14:00:59;;;;;;;34.35;22.95;;;;;;;12.32;58.13;100886.69;5057422;28;20029;-55
2021/11/12 14:03:40;;;;;;;28.85;20.58;;;;;;;12.29;57.06;100889.50;5057302;28;20404;-56
2021/11/12 14:06:11;;;;;;;28.67;20.65;;;;;;;12.27;56.69;100891.91;5032103;28;20029;-57
2021/11/12 14:08:42;;;;;;;26.25;19.00;;;;;;;12.23;56.25;100894.75;5057349;28;20020;-54
2021/11/12 14:11:34;;;;;;;24.02;16.88;;;;;;;12.20;56.28;100889.09;5057353;28;20036;-56
2021/11/12 14:14:05;;;;;;;32.72;21.35;;;;;;;12.14;55.63;100888.69;5054740;28;20036;-53
2021/11/12 14:16:35;;;;;;;43.38;28.48;;;;;;;12.09;56.27;100891.13;5057037;28;20079;-52
2021/11/12 14:21:37;;;;;;;49.38;36.33;;;;;;;12.05;57.98;100885.44;5056955;28;20013;-55
2021/11/12 14:27:48;;;;;;;39.88;27.80;;;;;;;11.91;58.07;100882.63;5057278;28;20028;-58
2021/11/12 14:29:36;;;;;;;35.83;23.90;;;;;;;11.84;57.62;100885.44;5047170;28;20032;-57
2021/11/12 14:35:03;;;;;;;31.92;21.77;;;;;;;11.69;57.99;100884.56;5056798;28;20029;-55
2021/11/12 14:37:53;;;;;;;32.13;21.30;;;;;;;11.67;57.56;100886.97;5056900;28;20025;-56
2021/11/12 14:40:51;;;;;;;37.60;24.92;;;;;;;11.61;57.16;100878.13;5056770;28;20013;-57
2021/11/12 14:45:39;;;;;;;181.40;56.97;;;;;;;11.54;57.83;100883.72;5029996;28;20020;-56
2021/11/12 14:53:39;;;;;;;31.10;22.02;;;;;;;11.36;57.30;100883.66;5056653;28;20040;-57
2021/11/12 14:56:11;;;;;;;57.67;27.88;;;;;;;11.22;57.67;100889.22;5051752;28;20025;-55
2021/11/12 14:58:41;;;;;;;;;;;;;;;11.03;58.05;100887.53;5052513;28;20077;-54
2021/11/12 15:01:11;;;;;;;39.50;23.75;;;;;;;10.95;58.59;100893.50;5056266;28;20300;-56
2021/11/12 15:03:41;;;;;;;44.63;25.45;;;;;;;10.92;60.17;100897.09;5056236;28;20028;-57
2021/11/12 15:06:07;;;;;;;80.93;42.78;;;;;;;10.93;60.92;100893.88;5056209;28;20029;-56
2021/11/12 15:08:33;;;;;;;64.15;39.47;;;;;;;10.81;62.44;100892.22;5056072;28;20025;-55
2021/11/12 15:11:01;;;;;;;57.42;35.60;;;;;;;10.73;63.23;100895.38;5055165;28;20020;-56
2021/11/12 15:13:29;;;;;;;55.55;37.55;;;;;;;10.62;63.81;100895.31;5055883;28;20109;-55
2021/11/12 15:15:55;;;;;;;55.30;38.00;;;;;;;10.49;64.82;100889.19;5055753;28;20029;-56
2021/11/12 15:18:20;;;;;;;58.97;38.30;;;;;;;10.45;65.00;100896.81;5056085;28;20031;-52
2021/11/12 15:20:46;;;;;;;62.58;40.40;;;;;;;10.37;64.50;100895.09;5055662;28;20059;-50
2021/11/12 15:23:30;;;;;;;72.85;40.70;;;;;;;10.27;65.38;100897.84;5055943;28;20074;-56
2021/11/12 15:28:49;;;;;;;;;;;;;;;10.17;65.63;100893.72;5056306;28;20025;-56
2021/11/12 15:33:46;;;;;;;60.10;38.28;;;;;;;9.98;66.20;100900.38;5056049;28;20028;-55
2021/11/12 15:36:14;;;;;;;71.03;42.08;;;;;;;9.81;66.25;100896.16;5055778;28;20025;-54
2021/11/12 15:41:31;;;;;;;93.30;49.50;;;;;;;9.77;67.38;100897.34;5055936;28;20025;-55
2021/11/12 15:44:12;;;;;;;69.07;39.97;;;;;;;9.70;66.78;100900.88;5055786;28;20056;-53
2021/11/12 15:46:44;;;;;;;76.10;51.00;;;;;;;9.59;67.34;100902.78;5055175;28;20029;-57
2021/11/12 15:49:10;;;;;;;95.88;59.83;;;;;;;9.48;66.99;100910.25;5043933;28;20033;-59
2021/11/12 15:51:49;;;;;;;90.90;57.33;;;;;;;9.34;67.89;100910.88;5030510;28;20075;-58
2021/11/12 16:21:05;;;;;;;80.32;46.58;;;;;;;8.51;68.78;100913.72;5047612;28;20017;-58
2021/11/12 16:25:39;;;;;;;102.07;59.17;;;;;;;8.46;69.23;100921.63;5050526;28;20030;-56
2021/11/12 16:28:06;;;;;;;87.22;51.42;;;;;;;8.39;68.88;100918.69;5037899;28;20025;-55
2021/11/12 16:30:35;;;;;;;68.78;36.35;;;;;;;8.40;67.00;100926.72;5044724;28;20425;-57
2021/11/12 16:33:03;;;;;;;55.45;36.22;;;;;;;8.15;67.01;100934.66;5025964;28;20653;-58
2021/11/12 16:35:32;;;;;;;57.63;37.58;;;;;;;7.94;69.03;100939.88;5027940;28;20030;-55
2021/11/12 16:38:04;;;;;;;54.90;35.20;;;;;;;7.85;69.81;100940.13;5040274;28;20056;-57
2021/11/12 16:40:33;;;;;;;59.40;36.83;;;;;;;7.86;68.46;100943.72;5034194;28;20049;-54
2021/11/12 16:43:13;;;;;;;51.03;33.78;;;;;;;7.64;69.33;100937.72;5040234;28;20017;-52
2021/11/12 16:58:46;;;;;;;43.63;28.58;;;;;;;7.25;70.34;100948.09;5048342;28;20360;-55
2021/11/12 17:16:46;;;;;;;64.05;38.88;;;;;;;6.76;72.80;100956.97;5035785;28;20075;-56
2021/11/12 17:48:34;;;;;;;61.33;37.13;;;;;;;6.44;75.21;100950.63;5033823;28;20066;-52
2021/11/12 17:51:17;;;;;;;56.10;35.05;;;;;;;6.49;76.38;100944.75;5035820;28;20033;-54